Time;durP1;ratioP1;P1;durP2;ratioP2;P2;SDS_P1;SDS_P2;PMS_P1;PMS_P2;Temp;Humidity;BMP_temperature;BMP_pressure;BME280_temperature;BME280_humidity;BME280_pressure;Samples;Min_cycle;Max_cycle;Signal;HPM_P1;HPM_P2
2024/02/17 00:01:19;;;;;;;6.55;3.00;;;;;;;;;;5029019;28;20045;-65
2024/02/17 00:03:47;;;;;;;3.95;2.38;;;;;;;;;;5027737;28;20049;-63
2024/02/17 00:06:16;;;;;;;4.22;3.10;;;;;;;;;;5024452;28;20045;-64
2024/02/17 00:08:44;;;;;;;3.80;2.60;;;;;;;;;;5029142;28;20229;-65
2024/02/17 00:11:13;;;;;;;4.80;3.00;;;;;;;;;;5028363;28;20111;-64
2024/02/17 00:13:43;;;;;;;5.85;3.13;;;;;;;;;;5027818;28;20298;-63
2024/02/17 00:16:13;;;;;;;6.25;3.10;;;;;;;;;;5028491;28;20045;-63
2024/02/17 00:18:41;;;;;;;8.98;3.00;;;;;;;;;;5027604;28;20045;-64
2024/02/17 00:21:10;;;;;;;5.70;3.60;;;;;;;;;;5028617;28;20124;-65
2024/02/17 00:23:38;;;;;;;5.53;3.28;;;;;;;;;;5028400;28;20053;-63
2024/02/17 00:26:07;;;;;;;6.78;3.42;;;;;;;;;;5029141;28;20049;-63
2024/02/17 00:28:36;;;;;;;6.13;3.25;;;;;;;;;;5029794;28;20059;-62
2024/02/17 00:31:04;;;;;;;7.93;3.60;;;;;;;;;;5030051;28;20453;-63
2024/02/17 00:33:34;;;;;;;4.85;3.55;;;;;;;;;;5028688;28;20046;-64
2024/02/17 00:36:04;;;;;;;7.40;3.25;;;;;;;;;;5028432;28;20048;-63
2024/02/17 00:38:32;;;;;;;7.32;3.17;;;;;;;;;;5031305;28;20045;-62
2024/02/17 00:41:06;;;;;;;5.20;3.72;;;;;;;;;;5032182;28;20052;-63
2024/02/17 00:43:34;;;;;;;5.93;3.85;;;;;;;;;;5020888;28;20065;-62
2024/02/17 00:46:03;;;;;;;5.78;3.78;;;;;;;;;;5031746;28;20081;-63
2024/02/17 00:48:32;;;;;;;6.32;3.50;;;;;;;;;;5031733;28;20038;-63
2024/02/17 00:51:02;;;;;;;5.05;3.45;;;;;;;;;;5031625;28;20053;-61
2024/02/17 00:53:42;;;;;;;4.50;3.50;;;;;;;;;;5031880;28;20107;-64
2024/02/17 00:56:13;;;;;;;3.92;3.13;;;;;;;;;;5030851;28;20041;-63
2024/02/17 00:58:41;;;;;;;5.05;3.35;;;;;;;;;;5031600;28;20037;-62
2024/02/17 01:01:11;;;;;;;7.00;3.45;;;;;;;;;;5031361;28;20056;-66
2024/02/17 01:03:53;;;;;;;5.72;3.58;;;;;;;;;;5026152;28;20051;-63
2024/02/17 01:06:23;;;;;;;4.80;3.33;;;;;;;;;;5031912;28;20080;-65
2024/02/17 01:08:52;;;;;;;5.35;3.15;;;;;;;;;;5022415;28;20115;-64
2024/02/17 01:11:20;;;;;;;8.63;2.67;;;;;;;;;;5031200;28;20041;-62
2024/02/17 01:13:49;;;;;;;5.32;3.30;;;;;;;;;;5031480;28;20046;-62
2024/02/17 01:16:17;;;;;;;5.03;3.22;;;;;;;;;;5031725;28;20088;-64
2024/02/17 01:18:46;;;;;;;5.10;3.42;;;;;;;;;;5031735;28;20061;-62
2024/02/17 01:21:15;;;;;;;4.13;3.10;;;;;;;;;;5031453;28;20053;-64
2024/02/17 01:23:45;;;;;;;3.47;3.05;;;;;;;;;;5034455;28;20053;-62
2024/02/17 01:26:13;;;;;;;4.32;3.13;;;;;;;;;;5028117;28;20072;-61
2024/02/17 01:28:42;;;;;;;7.10;3.08;;;;;;;;;;5031509;28;20115;-63
2024/02/17 01:31:10;;;;;;;7.65;3.72;;;;;;;;;;5031494;28;20049;-63
2024/02/17 01:33:38;;;;;;;4.38;3.10;;;;;;;;;;5031548;28;20457;-63
2024/02/17 01:36:14;;;;;;;6.57;4.03;;;;;;;;;;5030999;28;20076;-64
2024/02/17 01:38:45;;;;;;;5.47;3.70;;;;;;;;;;5031589;28;20064;-64
2024/02/17 01:41:14;;;;;;;3.92;2.90;;;;;;;;;;5036691;28;20052;-64
2024/02/17 01:43:42;;;;;;;6.55;3.47;;;;;;;;;;5031926;28;20115;-66
2024/02/17 01:46:11;;;;;;;5.10;2.72;;;;;;;;;;5028314;28;20038;-67
2024/02/17 01:48:39;;;;;;;4.82;3.17;;;;;;;;;;5030672;28;20081;-63
2024/02/17 01:51:10;;;;;;;4.38;2.47;;;;;;;;;;5026642;28;20049;-64
2024/02/17 01:53:39;;;;;;;5.35;3.20;;;;;;;;;;5031777;28;20410;-65
2024/02/17 01:56:10;;;;;;;5.35;3.20;;;;;;;;;;5031035;28;20099;-66
2024/02/17 01:58:38;;;;;;;3.85;2.78;;;;;;;;;;5030662;28;20410;-63
2024/02/17 02:01:07;;;;;;;3.83;2.95;;;;;;;;;;5033243;28;20041;-65
2024/02/17 02:03:36;;;;;;;4.70;3.00;;;;;;;;;;5031088;28;20050;-61
2024/02/17 02:06:05;;;;;;;4.00;2.95;;;;;;;;;;5020613;28;20050;-61
2024/02/17 02:08:34;;;;;;;3.55;2.67;;;;;;;;;;5031426;28;20562;-62
2024/02/17 02:11:02;;;;;;;5.78;3.42;;;;;;;;;;5030058;28;20533;-61
2024/02/17 02:13:32;;;;;;;4.40;2.53;;;;;;;;;;5030624;28;20052;-61
2024/02/17 02:16:00;;;;;;;6.75;4.05;;;;;;;;;;5030045;28;20049;-64
2024/02/17 02:18:29;;;;;;;4.07;2.80;;;;;;;;;;5024160;28;20049;-61
2024/02/17 02:20:57;;;;;;;4.90;3.30;;;;;;;;;;5031021;28;20526;-62
2024/02/17 02:23:26;;;;;;;5.18;2.83;;;;;;;;;;5031276;28;20111;-62
2024/02/17 02:25:56;;;;;;;5.72;3.33;;;;;;;;;;5030241;28;20107;-61
2024/02/17 02:28:25;;;;;;;5.70;3.00;;;;;;;;;;5030893;28;20445;-60
2024/02/17 02:30:57;;;;;;;6.25;2.95;;;;;;;;;;5030290;28;20121;-60
2024/02/17 02:33:26;;;;;;;5.50;2.88;;;;;;;;;;5030939;28;20054;-62
2024/02/17 02:35:55;;;;;;;6.20;3.15;;;;;;;;;;5026536;28;20517;-61
2024/02/17 02:38:23;;;;;;;3.97;2.83;;;;;;;;;;5030534;28;20053;-62
2024/02/17 02:40:51;;;;;;;7.63;3.60;;;;;;;;;;5029617;28;20045;-61
2024/02/17 02:43:21;;;;;;;7.63;3.13;;;;;;;;;;5031257;28;20107;-64
2024/02/17 02:45:50;;;;;;;10.40;3.42;;;;;;;;;;5029606;28;20407;-63
2024/02/17 02:48:18;;;;;;;5.40;2.92;;;;;;;;;;5030402;28;20531;-63
2024/02/17 02:50:47;;;;;;;6.13;3.72;;;;;;;;;;5029686;28;20057;-62
2024/02/17 02:53:15;;;;;;;3.22;2.70;;;;;;;;;;5029707;28;20049;-62
2024/02/17 02:55:44;;;;;;;4.32;3.10;;;;;;;;;;5030439;28;20045;-62
2024/02/17 02:58:12;;;;;;;5.68;2.92;;;;;;;;;;5030271;28;20503;-64
2024/02/17 03:00:42;;;;;;;6.30;2.92;;;;;;;;;;5028393;28;20491;-64
2024/02/17 03:03:10;;;;;;;5.28;3.08;;;;;;;;;;5029935;28;20055;-63
2024/02/17 03:05:39;;;;;;;5.15;3.30;;;;;;;;;;5028581;28;20045;-63
2024/02/17 03:08:07;;;;;;;5.18;3.47;;;;;;;;;;5030578;28;20053;-65
2024/02/17 03:10:36;;;;;;;6.57;3.20;;;;;;;;;;5029801;28;20111;-63
2024/02/17 03:13:04;;;;;;;4.75;3.13;;;;;;;;;;5031799;28;20764;-63
2024/02/17 03:15:33;;;;;;;4.45;3.15;;;;;;;;;;5030042;28;20103;-64
2024/02/17 03:18:03;;;;;;;4.13;3.13;;;;;;;;;;5029279;28;20049;-65
2024/02/17 03:20:31;;;;;;;4.30;3.03;;;;;;;;;;5029610;28;20061;-62
2024/02/17 03:23:00;;;;;;;3.95;2.83;;;;;;;;;;5029548;28;20049;-63
2024/02/17 03:25:28;;;;;;;5.60;3.00;;;;;;;;;;5026629;28;20083;-63
2024/02/17 03:27:56;;;;;;;6.30;2.90;;;;;;;;;;5029286;28;20644;-64
2024/02/17 03:30:25;;;;;;;3.65;2.58;;;;;;;;;;5029218;28;20049;-64
2024/02/17 03:32:54;;;;;;;4.32;2.70;;;;;;;;;;5028541;28;20541;-62
2024/02/17 03:35:24;;;;;;;3.67;2.95;;;;;;;;;;5029740;28;20092;-63
2024/02/17 03:37:53;;;;;;;4.82;2.85;;;;;;;;;;5028951;28;20494;-64
2024/02/17 03:40:21;;;;;;;6.18;3.28;;;;;;;;;;5029031;28;20471;-65
2024/02/17 03:42:50;;;;;;;4.38;2.97;;;;;;;;;;5028264;28;20068;-64
2024/02/17 03:45:18;;;;;;;4.75;3.15;;;;;;;;;;5028919;28;20095;-65
2024/02/17 03:47:47;;;;;;;5.03;3.25;;;;;;;;;;5017183;28;20054;-63
2024/02/17 03:50:15;;;;;;;5.90;3.45;;;;;;;;;;5033953;28;20052;-64
2024/02/17 03:52:46;;;;;;;3.72;2.90;;;;;;;;;;5033042;28;20053;-66
2024/02/17 03:55:14;;;;;;;4.72;3.17;;;;;;;;;;5019727;28;20077;-63
2024/02/17 03:57:43;;;;;;;5.93;3.22;;;;;;;;;;5029868;28;20053;-64
2024/02/17 04:00:13;;;;;;;5.05;3.10;;;;;;;;;;5029010;28;20049;-63
2024/02/17 04:02:42;;;;;;;6.88;3.60;;;;;;;;;;5028010;28;20099;-65
2024/02/17 04:05:10;;;;;;;4.97;3.30;;;;;;;;;;5020290;28;20049;-65
2024/02/17 04:07:39;;;;;;;4.57;3.00;;;;;;;;;;5028100;28;20136;-63
2024/02/17 04:10:10;;;;;;;4.20;3.47;;;;;;;;;;5028916;28;20095;-66
2024/02/17 04:12:40;;;;;;;5.13;3.30;;;;;;;;;;5028524;28;20045;-63
2024/02/17 04:15:09;;;;;;;5.07;3.05;;;;;;;;;;5029851;28;20075;-64
2024/02/17 04:17:38;;;;;;;5.25;3.08;;;;;;;;;;5028337;28;20502;-64
2024/02/17 04:20:07;;;;;;;5.22;3.40;;;;;;;;;;5029255;28;20120;-67
2024/02/17 04:22:36;;;;;;;4.57;3.10;;;;;;;;;;5029803;28;20053;-63
2024/02/17 04:25:05;;;;;;;4.47;3.20;;;;;;;;;;5026105;28;20045;-61
2024/02/17 04:27:34;;;;;;;5.93;3.17;;;;;;;;;;5029098;28;20057;-66
2024/02/17 04:30:03;;;;;;;7.47;3.08;;;;;;;;;;5030541;28;20103;-65
2024/02/17 04:32:32;;;;;;;7.85;3.65;;;;;;;;;;5028622;28;20041;-63
2024/02/17 04:35:00;;;;;;;5.25;3.38;;;;;;;;;;5029195;28;20049;-63
2024/02/17 04:37:29;;;;;;;5.05;3.50;;;;;;;;;;5028821;28;20075;-64
2024/02/17 04:39:57;;;;;;;5.63;3.30;;;;;;;;;;5028492;28;20107;-65
2024/02/17 04:42:26;;;;;;;4.70;3.47;;;;;;;;;;5028823;28;20069;-63
2024/02/17 04:44:56;;;;;;;6.95;3.95;;;;;;;;;;5028524;28;20045;-63
2024/02/17 04:47:24;;;;;;;6.88;3.47;;;;;;;;;;5028704;28;20571;-62
2024/02/17 04:49:53;;;;;;;4.85;3.60;;;;;;;;;;5028362;28;20052;-62
2024/02/17 04:52:21;;;;;;;5.47;3.65;;;;;;;;;;5024318;28;20125;-65
2024/02/17 04:54:50;;;;;;;5.35;3.80;;;;;;;;;;5028609;28;20049;-63
2024/02/17 04:57:18;;;;;;;6.35;3.83;;;;;;;;;;5028716;28;20422;-62
2024/02/17 04:59:47;;;;;;;4.72;3.75;;;;;;;;;;5027602;28;20042;-66
2024/02/17 05:02:17;;;;;;;5.28;3.47;;;;;;;;;;5021504;28;20045;-62
2024/02/17 05:04:45;;;;;;;7.38;3.65;;;;;;;;;;5032649;28;20065;-63
2024/02/17 05:07:14;;;;;;;7.47;3.78;;;;;;;;;;5028023;28;20057;-63
2024/02/17 05:09:42;;;;;;;5.00;3.38;;;;;;;;;;5027636;28;20115;-63
2024/02/17 05:12:10;;;;;;;6.20;4.03;;;;;;;;;;5028800;28;20045;-65
2024/02/17 05:14:39;;;;;;;5.20;3.47;;;;;;;;;;5028692;28;20153;-65
2024/02/17 05:17:07;;;;;;;4.85;3.28;;;;;;;;;;5027307;28;20506;-64
2024/02/17 05:19:37;;;;;;;4.28;3.33;;;;;;;;;;5027144;28;20136;-63
2024/02/17 05:22:06;;;;;;;4.93;3.53;;;;;;;;;;5028420;28;20041;-62
2024/02/17 05:24:37;;;;;;;3.95;3.58;;;;;;;;;;5039376;28;20124;-62
2024/02/17 05:27:06;;;;;;;4.30;3.30;;;;;;;;;;5030559;28;20046;-63
2024/02/17 05:29:34;;;;;;;5.10;3.72;;;;;;;;;;5031253;28;20053;-64
2024/02/17 05:32:02;;;;;;;4.43;3.35;;;;;;;;;;5030628;28;20115;-63
2024/02/17 05:34:31;;;;;;;3.75;3.05;;;;;;;;;;5031168;28;20366;-63
2024/02/17 05:37:01;;;;;;;4.65;3.65;;;;;;;;;;5030520;28;20458;-63
2024/02/17 05:39:29;;;;;;;4.05;3.50;;;;;;;;;;5031357;28;20554;-63
2024/02/17 05:41:57;;;;;;;3.92;3.33;;;;;;;;;;5031349;28;20080;-68
2024/02/17 05:44:26;;;;;;;4.55;3.35;;;;;;;;;;5018966;28;20549;-64
2024/02/17 05:46:54;;;;;;;4.78;3.65;;;;;;;;;;5030052;28;20446;-63
2024/02/17 05:49:22;;;;;;;3.90;3.20;;;;;;;;;;5031113;28;20104;-63
2024/02/17 05:51:52;;;;;;;4.45;2.95;;;;;;;;;;5031998;28;20136;-63
2024/02/17 05:54:22;;;;;;;5.82;3.22;;;;;;;;;;5020060;28;20057;-65
2024/02/17 05:56:50;;;;;;;4.45;3.03;;;;;;;;;;5030880;28;20050;-66
2024/02/17 05:59:18;;;;;;;5.72;3.33;;;;;;;;;;5030377;28;20045;-63
2024/02/17 06:01:47;;;;;;;4.15;3.38;;;;;;;;;;5030553;28;20657;-63
2024/02/17 06:04:15;;;;;;;5.22;3.42;;;;;;;;;;5031642;28;20156;-63
2024/02/17 06:06:44;;;;;;;5.13;3.15;;;;;;;;;;5031047;28;20057;-64
2024/02/17 06:09:12;;;;;;;4.35;3.25;;;;;;;;;;5029991;28;20506;-65
2024/02/17 06:11:42;;;;;;;4.53;2.90;;;;;;;;;;5030729;28;20060;-63
2024/02/17 06:14:11;;;;;;;4.43;3.25;;;;;;;;;;5031771;28;20132;-62
2024/02/17 06:16:39;;;;;;;3.80;3.05;;;;;;;;;;5031244;28;20391;-67
2024/02/17 06:21:56;;;;;;;3.15;2.85;;;;;;;;;;5030682;28;20119;-63
2024/02/17 06:24:24;;;;;;;4.20;3.20;;;;;;;;;;5040065;28;20049;-62
2024/02/17 06:26:54;;;;;;;4.32;3.28;;;;;;;;;;5030687;28;20103;-62
2024/02/17 06:29:23;;;;;;;4.85;3.85;;;;;;;;;;5030044;28;20069;-63
2024/02/17 06:31:51;;;;;;;3.35;3.05;;;;;;;;;;5030376;28;20049;-66
2024/02/17 06:34:19;;;;;;;4.03;3.00;;;;;;;;;;5030383;28;20049;-66
2024/02/17 06:36:48;;;;;;;3.58;2.97;;;;;;;;;;5028498;28;20041;-65
2024/02/17 06:39:16;;;;;;;4.55;3.05;;;;;;;;;;5029928;28;20187;-63
2024/02/17 06:41:45;;;;;;;4.28;2.90;;;;;;;;;;5030363;28;20124;-64
2024/02/17 06:44:14;;;;;;;3.20;2.90;;;;;;;;;;5030002;28;20037;-65
2024/02/17 06:46:46;;;;;;;4.55;3.00;;;;;;;;;;5030376;28;20046;-65
2024/02/17 06:49:14;;;;;;;3.88;3.10;;;;;;;;;;5029881;28;20050;-64
2024/02/17 06:51:43;;;;;;;3.22;2.80;;;;;;;;;;5018470;28;20054;-63
2024/02/17 06:54:11;;;;;;;3.70;2.75;;;;;;;;;;5029306;28;20041;-64
2024/02/17 06:56:39;;;;;;;5.40;3.10;;;;;;;;;;5023406;28;20052;-66
2024/02/17 06:59:08;;;;;;;4.50;3.15;;;;;;;;;;5029181;28;20099;-66
2024/02/17 07:01:38;;;;;;;3.55;3.13;;;;;;;;;;5029755;28;20373;-63
2024/02/17 07:04:06;;;;;;;3.28;2.80;;;;;;;;;;5029844;28;20053;-64
2024/02/17 07:06:34;;;;;;;3.53;2.80;;;;;;;;;;5030122;28;20064;-64
2024/02/17 07:09:03;;;;;;;4.43;3.05;;;;;;;;;;5029062;28;20049;-66
2024/02/17 07:11:32;;;;;;;3.85;3.22;;;;;;;;;;5030195;28;20068;-64
2024/02/17 07:14:02;;;;;;;3.42;2.85;;;;;;;;;;5029900;28;20064;-67
2024/02/17 07:16:30;;;;;;;3.60;2.85;;;;;;;;;;5029560;28;20073;-64
2024/02/17 07:19:00;;;;;;;4.75;3.63;;;;;;;;;;5028923;28;20096;-65
2024/02/17 07:21:28;;;;;;;3.00;2.70;;;;;;;;;;5030050;28;20345;-66
2024/02/17 07:23:57;;;;;;;3.78;2.90;;;;;;;;;;5029045;28;20045;-66
2024/02/17 07:26:25;;;;;;;3.67;3.05;;;;;;;;;;5029320;28;20515;-64
2024/02/17 07:28:54;;;;;;;5.30;3.03;;;;;;;;;;5021359;28;20076;-64
2024/02/17 07:31:22;;;;;;;3.28;2.83;;;;;;;;;;5029255;28;20406;-65
2024/02/17 07:33:52;;;;;;;4.68;3.35;;;;;;;;;;5029129;28;20054;-66
2024/02/17 07:36:25;;;;;;;3.40;2.88;;;;;;;;;;5029175;28;20493;-69
2024/02/17 07:38:54;;;;;;;2.90;2.58;;;;;;;;;;5025023;28;20348;-63
2024/02/17 07:41:22;;;;;;;8.25;3.55;;;;;;;;;;5027151;28;20045;-64
2024/02/17 07:43:52;;;;;;;4.10;3.30;;;;;;;;;;5029438;28;20053;-63
2024/02/17 07:46:21;;;;;;;4.60;3.28;;;;;;;;;;5029208;28;20495;-68
2024/02/17 07:48:51;;;;;;;5.95;3.28;;;;;;;;;;5028236;28;20080;-64
2024/02/17 07:51:19;;;;;;;4.88;3.33;;;;;;;;;;5028492;28;20054;-63
2024/02/17 07:53:49;;;;;;;6.13;3.78;;;;;;;;;;5028893;28;20045;-64
2024/02/17 07:56:17;;;;;;;5.03;3.60;;;;;;;;;;5028899;28;20046;-63
2024/02/17 07:58:46;;;;;;;6.28;3.40;;;;;;;;;;5029057;28;20042;-64
2024/02/17 08:01:14;;;;;;;5.13;3.83;;;;;;;;;;5027239;28;20067;-64
2024/02/17 08:03:43;;;;;;;5.20;3.58;;;;;;;;;;5026282;28;20062;-64
2024/02/17 08:06:12;;;;;;;5.38;3.72;;;;;;;;;;5024740;28;20050;-63
2024/02/17 08:08:42;;;;;;;4.55;3.50;;;;;;;;;;5027084;28;20061;-63
2024/02/17 08:11:12;;;;;;;5.65;3.55;;;;;;;;;;5026287;28;20524;-66
2024/02/17 08:13:41;;;;;;;7.18;3.88;;;;;;;;;;5026230;28;20073;-65
2024/02/17 08:16:10;;;;;;;5.45;3.75;;;;;;;;;;5025465;28;20097;-65
2024/02/17 08:18:41;;;;;;;4.88;3.55;;;;;;;;;;5027417;28;20049;-64
2024/02/17 08:21:10;;;;;;;4.82;3.58;;;;;;;;;;5027255;28;20134;-63
2024/02/17 08:23:39;;;;;;;5.53;3.45;;;;;;;;;;5026564;28;20103;-67
2024/02/17 08:26:10;;;;;;;7.13;3.95;;;;;;;;;;5025766;28;20045;-65
2024/02/17 08:28:40;;;;;;;5.75;3.75;;;;;;;;;;5019492;28;20049;-66
2024/02/17 08:31:09;;;;;;;6.60;3.95;;;;;;;;;;5023839;28;20054;-63
2024/02/17 08:33:37;;;;;;;5.63;3.53;;;;;;;;;;5028336;28;20057;-64
2024/02/17 08:36:06;;;;;;;5.50;3.80;;;;;;;;;;5024733;28;20145;-66
2024/02/17 08:38:34;;;;;;;5.53;3.75;;;;;;;;;;5027427;28;20148;-64
2024/02/17 08:41:03;;;;;;;6.97;3.92;;;;;;;;;;5025678;28;20151;-63
2024/02/17 08:43:32;;;;;;;6.65;3.67;;;;;;;;;;5028212;28;20049;-63
2024/02/17 08:46:02;;;;;;;4.20;2.97;;;;;;;;;;5025231;28;20060;-65
2024/02/17 08:48:32;;;;;;;4.70;3.15;;;;;;;;;;5026332;28;20498;-64
2024/02/17 08:51:01;;;;;;;5.43;3.20;;;;;;;;;;5023802;28;20142;-64
2024/02/17 08:53:31;;;;;;;4.88;3.25;;;;;;;;;;5028135;28;20049;-65
2024/02/17 08:55:59;;;;;;;7.18;3.42;;;;;;;;;;5028065;28;20119;-63
2024/02/17 08:58:28;;;;;;;5.88;3.40;;;;;;;;;;5028838;28;20058;-64
2024/02/17 09:00:57;;;;;;;6.43;4.25;;;;;;;;;;5027352;28;20045;-66
2024/02/17 09:03:27;;;;;;;6.25;3.58;;;;;;;;;;5031197;28;20049;-70
2024/02/17 09:05:56;;;;;;;5.82;3.58;;;;;;;;;;5030406;28;20369;-62
2024/02/17 09:08:24;;;;;;;7.72;4.03;;;;;;;;;;5032426;28;20092;-63
2024/02/17 09:10:53;;;;;;;6.63;4.40;;;;;;;;;;5027807;28;20481;-65
2024/02/17 09:13:21;;;;;;;6.43;4.00;;;;;;;;;;5030683;28;20384;-65
2024/02/17 09:15:49;;;;;;;5.85;3.80;;;;;;;;;;5025918;28;20055;-65
2024/02/17 09:18:18;;;;;;;8.95;4.53;;;;;;;;;;5029788;28;20099;-67
2024/02/17 09:20:49;;;;;;;8.02;4.13;;;;;;;;;;5028402;28;20422;-68
2024/02/17 09:23:18;;;;;;;7.53;4.47;;;;;;;;;;5030417;28;20076;-63
2024/02/17 09:25:46;;;;;;;6.65;4.00;;;;;;;;;;5028941;28;20037;-62
2024/02/17 09:28:14;;;;;;;6.95;4.10;;;;;;;;;;5029958;28;20095;-66
2024/02/17 09:30:43;;;;;;;7.78;4.45;;;;;;;;;;5028345;28;20399;-63
2024/02/17 09:33:11;;;;;;;7.65;4.50;;;;;;;;;;5030152;28;20053;-67
2024/02/17 09:35:40;;;;;;;6.53;4.20;;;;;;;;;;5029871;28;20045;-64
2024/02/17 09:38:10;;;;;;;8.52;4.20;;;;;;;;;;5030266;28;20088;-66
2024/02/17 09:40:39;;;;;;;8.15;4.50;;;;;;;;;;5028293;28;20056;-64
2024/02/17 09:43:07;;;;;;;8.32;4.47;;;;;;;;;;5029883;28;20095;-69
2024/02/17 09:45:35;;;;;;;8.80;4.95;;;;;;;;;;5027778;28;20111;-63
2024/02/17 09:48:05;;;;;;;9.32;4.70;;;;;;;;;;5029687;28;20053;-66
2024/02/17 09:50:34;;;;;;;9.82;4.80;;;;;;;;;;5028928;28;20445;-64
2024/02/17 09:53:05;;;;;;;7.15;4.07;;;;;;;;;;5026835;28;20057;-66
2024/02/17 09:55:36;;;;;;;8.20;4.82;;;;;;;;;;5026254;28;20065;-66
2024/02/17 09:58:04;;;;;;;7.57;4.53;;;;;;;;;;5027418;28;20052;-63
2024/02/17 10:00:33;;;;;;;9.45;4.60;;;;;;;;;;5028090;28;20054;-64
2024/02/17 10:03:01;;;;;;;7.80;4.13;;;;;;;;;;5030625;28;20052;-63
2024/02/17 10:05:32;;;;;;;7.40;4.30;;;;;;;;;;5030295;28;20049;-65
2024/02/17 10:08:00;;;;;;;9.45;4.80;;;;;;;;;;5027645;28;20037;-64
2024/02/17 10:10:30;;;;;;;7.93;4.85;;;;;;;;;;5021103;28;20062;-63
2024/02/17 10:13:01;;;;;;;7.90;4.55;;;;;;;;;;5029212;28;20458;-66
2024/02/17 10:15:32;;;;;;;7.45;4.60;;;;;;;;;;5027765;28;20045;-69
2024/02/17 10:18:00;;;;;;;9.82;5.70;;;;;;;;;;5026360;28;20128;-67
2024/02/17 10:20:29;;;;;;;9.27;4.78;;;;;;;;;;5028844;28;20454;-63
2024/02/17 10:22:57;;;;;;;9.18;4.85;;;;;;;;;;5030062;28;20112;-63
2024/02/17 10:25:26;;;;;;;8.35;4.90;;;;;;;;;;5033509;28;20067;-63
2024/02/17 10:27:54;;;;;;;9.55;4.45;;;;;;;;;;5029483;28;20049;-66
2024/02/17 10:30:25;;;;;;;11.57;5.72;;;;;;;;;;5028232;28;20128;-65
2024/02/17 10:32:54;;;;;;;11.38;5.32;;;;;;;;;;5029437;28;20057;-64
2024/02/17 10:35:22;;;;;;;9.73;4.85;;;;;;;;;;5030456;28;20056;-63
2024/02/17 10:37:51;;;;;;;8.77;4.72;;;;;;;;;;5030046;28;20651;-65
2024/02/17 10:40:19;;;;;;;8.70;5.43;;;;;;;;;;5026631;28;20095;-68
2024/02/17 10:42:50;;;;;;;7.45;4.57;;;;;;;;;;5029670;28;20572;-67
2024/02/17 10:45:19;;;;;;;10.45;5.47;;;;;;;;;;5026941;28;20498;-66
2024/02/17 10:47:49;;;;;;;8.23;4.55;;;;;;;;;;5026280;28;20070;-67
2024/02/17 10:50:20;;;;;;;7.75;4.65;;;;;;;;;;5027364;28;20060;-67
2024/02/17 10:52:51;;;;;;;8.68;5.32;;;;;;;;;;5030097;28;20115;-68
2024/02/17 10:55:23;;;;;;;8.07;4.68;;;;;;;;;;5029784;28;20056;-67
2024/02/17 10:57:59;;;;;;;8.40;4.70;;;;;;;;;;5029818;28;20103;-64
2024/02/17 11:00:27;;;;;;;7.75;4.60;;;;;;;;;;5029881;28;20048;-67
2024/02/17 11:03:03;;;;;;;8.77;5.35;;;;;;;;;;5022121;28;20493;-68
2024/02/17 11:05:32;;;;;;;8.18;4.55;;;;;;;;;;5027823;28;20092;-65
2024/02/17 11:08:01;;;;;;;9.07;5.03;;;;;;;;;;5028639;28;20047;-65
2024/02/17 11:10:30;;;;;;;7.90;4.85;;;;;;;;;;5029928;28;20041;-64
2024/02/17 11:13:01;;;;;;;7.65;4.10;;;;;;;;;;5029571;28;20525;-65
2024/02/17 11:15:29;;;;;;;7.53;4.35;;;;;;;;;;5029207;28;20042;-66
2024/02/17 11:18:03;;;;;;;7.60;4.18;;;;;;;;;;5028417;28;20057;-66
2024/02/17 11:20:32;;;;;;;7.63;4.15;;;;;;;;;;5028342;28;20095;-68
2024/02/17 11:23:02;;;;;;;7.72;4.57;;;;;;;;;;5027341;28;20127;-65
2024/02/17 11:25:33;;;;;;;6.30;4.03;;;;;;;;;;5026038;28;20049;-67
2024/02/17 11:28:03;;;;;;;6.10;3.70;;;;;;;;;;5025605;28;20431;-65
2024/02/17 11:30:47;;;;;;;6.55;3.90;;;;;;;;;;5023145;28;20041;-66
2024/02/17 11:33:17;;;;;;;5.45;3.65;;;;;;;;;;5028028;28;20064;-64
2024/02/17 11:35:47;;;;;;;6.63;3.78;;;;;;;;;;5025837;28;20053;-64
2024/02/17 11:38:21;;;;;;;7.25;3.83;;;;;;;;;;5026553;28;20433;-64
2024/02/17 11:40:50;;;;;;;5.53;3.47;;;;;;;;;;5023512;28;20041;-63
2024/02/17 11:43:19;;;;;;;5.82;3.50;;;;;;;;;;5024690;28;20050;-65
2024/02/17 11:45:48;;;;;;;6.38;3.95;;;;;;;;;;5025854;28;20065;-65
2024/02/17 11:48:18;;;;;;;6.05;3.80;;;;;;;;;;5020790;28;20140;-65
2024/02/17 11:50:46;;;;;;;6.00;3.42;;;;;;;;;;5024814;28;20048;-64
2024/02/17 11:53:15;;;;;;;5.43;3.30;;;;;;;;;;5024761;28;20060;-66
2024/02/17 11:55:44;;;;;;;6.50;3.95;;;;;;;;;;5024499;28;20056;-64
2024/02/17 11:58:12;;;;;;;5.78;3.20;;;;;;;;;;5025887;28;20045;-65
2024/02/17 12:00:50;;;;;;;6.25;3.67;;;;;;;;;;5026268;28;20077;-66
2024/02/17 12:03:20;;;;;;;5.57;3.67;;;;;;;;;;5027120;28;20045;-65
2024/02/17 12:05:48;;;;;;;5.70;3.90;;;;;;;;;;5026256;28;20790;-65
2024/02/17 12:08:17;;;;;;;8.25;5.00;;;;;;;;;;5027894;28;20045;-65
2024/02/17 12:10:47;;;;;;;6.55;4.00;;;;;;;;;;5026552;28;20465;-68
2024/02/17 12:13:16;;;;;;;7.82;4.13;;;;;;;;;;5025716;28;20417;-68
2024/02/17 12:15:44;;;;;;;8.50;4.32;;;;;;;;;;5026483;28;20383;-64
2024/02/17 12:18:13;;;;;;;6.30;4.10;;;;;;;;;;5026566;28;20060;-64
2024/02/17 12:20:44;;;;;;;6.28;3.95;;;;;;;;;;5026052;28;20068;-65
2024/02/17 12:23:18;;;;;;;6.05;3.78;;;;;;;;;;5027201;28;20564;-65
2024/02/17 12:25:50;;;;;;;6.00;4.03;;;;;;;;;;5029364;28;20122;-64
2024/02/17 12:28:18;;;;;;;5.97;3.75;;;;;;;;;;5025285;28;20647;-65
2024/02/17 12:30:47;;;;;;;8.02;4.18;;;;;;;;;;5024194;28;20151;-65
2024/02/17 12:33:19;;;;;;;4.80;3.20;;;;;;;;;;5024975;28;20107;-65
2024/02/17 12:35:50;;;;;;;5.53;3.53;;;;;;;;;;5026899;28;20041;-64
2024/02/17 12:38:19;;;;;;;5.28;3.22;;;;;;;;;;5026440;28;20073;-63
2024/02/17 12:40:48;;;;;;;5.00;3.40;;;;;;;;;;5025638;28;20549;-68
2024/02/17 12:43:20;;;;;;;5.18;3.20;;;;;;;;;;5026325;28;20187;-62
2024/02/17 12:45:49;;;;;;;6.07;3.63;;;;;;;;;;5024310;28;20481;-63
2024/02/17 12:48:19;;;;;;;5.05;3.30;;;;;;;;;;5025225;28;20053;-65
2024/02/17 12:50:49;;;;;;;4.35;3.15;;;;;;;;;;5025364;28;20345;-65
2024/02/17 12:53:21;;;;;;;4.95;3.45;;;;;;;;;;5021992;28;20053;-66
2024/02/17 12:55:51;;;;;;;5.35;3.45;;;;;;;;;;5026536;28;20128;-63
2024/02/17 12:58:19;;;;;;;4.43;3.20;;;;;;;;;;5025746;28;20052;-64
2024/02/17 13:00:48;;;;;;;5.30;3.38;;;;;;;;;;5026443;28;20129;-66
2024/02/17 13:03:17;;;;;;;4.68;2.90;;;;;;;;;;5025146;28;20471;-66
2024/02/17 13:05:46;;;;;;;8.05;3.75;;;;;;;;;;5026260;28;20584;-64
2024/02/17 13:08:16;;;;;;;6.05;3.50;;;;;;;;;;5013805;28;20050;-63
2024/02/17 13:10:44;;;;;;;4.60;2.80;;;;;;;;;;5025929;28;21788;-67
2024/02/17 13:13:13;;;;;;;6.30;3.28;;;;;;;;;;5020131;28;20144;-65
2024/02/17 13:15:41;;;;;;;5.03;3.00;;;;;;;;;;5024834;28;20068;-65
2024/02/17 13:18:10;;;;;;;7.30;2.92;;;;;;;;;;5025747;28;20482;-66
2024/02/17 13:20:40;;;;;;;5.03;3.22;;;;;;;;;;5026838;28;20141;-65
2024/02/17 13:23:09;;;;;;;5.05;3.22;;;;;;;;;;5024882;28;20099;-64
2024/02/17 13:25:39;;;;;;;4.15;2.95;;;;;;;;;;5030299;28;20446;-67
2024/02/17 13:28:07;;;;;;;5.50;3.58;;;;;;;;;;5026327;28;20073;-63
2024/02/17 13:30:35;;;;;;;4.10;2.90;;;;;;;;;;5024629;28;20557;-66
2024/02/17 13:33:04;;;;;;;5.85;3.47;;;;;;;;;;5027147;28;20060;-63
2024/02/17 13:35:33;;;;;;;4.82;3.20;;;;;;;;;;5028058;28;20498;-64
2024/02/17 13:38:02;;;;;;;5.72;3.55;;;;;;;;;;5027260;28;20046;-64
2024/02/17 13:40:50;;;;;;;4.75;2.97;;;;;;;;;;5026144;28;20072;-66
2024/02/17 13:43:19;;;;;;;4.78;3.30;;;;;;;;;;5026958;28;20042;-63
2024/02/17 13:45:49;;;;;;;5.50;3.75;;;;;;;;;;5028876;28;21347;-65
2024/02/17 13:48:17;;;;;;;6.28;3.53;;;;;;;;;;5031391;28;20048;-63
2024/02/17 13:50:47;;;;;;;6.05;4.10;;;;;;;;;;5027271;28;20430;-65
2024/02/17 13:53:16;;;;;;;4.85;3.42;;;;;;;;;;5029744;28;20053;-62
2024/02/17 13:55:45;;;;;;;4.95;3.58;;;;;;;;;;5029580;28;20120;-64
2024/02/17 13:58:15;;;;;;;7.05;3.90;;;;;;;;;;5030603;28;20107;-62
2024/02/17 14:00:44;;;;;;;5.80;4.00;;;;;;;;;;5029400;28;20103;-62
2024/02/17 14:03:12;;;;;;;4.30;3.25;;;;;;;;;;5026580;28;20041;-64
2024/02/17 14:05:44;;;;;;;5.13;3.45;;;;;;;;;;5034847;28;20180;-63
2024/02/17 14:08:13;;;;;;;5.00;3.25;;;;;;;;;;5025505;28;20377;-62
2024/02/17 14:10:41;;;;;;;5.65;3.42;;;;;;;;;;5026149;28;20112;-63
2024/02/17 14:13:10;;;;;;;6.78;3.17;;;;;;;;;;5026044;28;20048;-65
2024/02/17 14:15:40;;;;;;;5.05;3.47;;;;;;;;;;5029273;28;20127;-65
2024/02/17 14:18:09;;;;;;;5.80;4.20;;;;;;;;;;5029864;28;20077;-66
2024/02/17 14:20:38;;;;;;;4.95;3.72;;;;;;;;;;5028662;28;20069;-67
2024/02/17 14:23:06;;;;;;;6.57;3.78;;;;;;;;;;5030979;28;20056;-65
2024/02/17 14:25:38;;;;;;;5.78;4.10;;;;;;;;;;5028272;28;20073;-65
2024/02/17 14:28:07;;;;;;;8.63;3.85;;;;;;;;;;5026691;28;20049;-66
2024/02/17 14:30:35;;;;;;;7.20;4.35;;;;;;;;;;5027917;28;20061;-65
2024/02/17 14:33:08;;;;;;;5.70;3.90;;;;;;;;;;5033088;28;20037;-65
2024/02/17 14:35:38;;;;;;;7.03;3.80;;;;;;;;;;5027045;28;20053;-64
2024/02/17 14:38:06;;;;;;;5.00;3.65;;;;;;;;;;5028322;28;20041;-64
2024/02/17 14:40:35;;;;;;;6.53;3.90;;;;;;;;;;5028629;28;20054;-65
2024/02/17 14:43:03;;;;;;;6.47;4.07;;;;;;;;;;5027463;28;20045;-67
2024/02/17 14:45:33;;;;;;;7.07;3.50;;;;;;;;;;5017927;28;20414;-65
2024/02/17 14:48:01;;;;;;;5.25;3.40;;;;;;;;;;5025624;28;20096;-64
2024/02/17 14:50:31;;;;;;;4.38;3.05;;;;;;;;;;5027698;28;20073;-66
2024/02/17 14:52:59;;;;;;;7.03;3.83;;;;;;;;;;5025220;28;20478;-64
2024/02/17 14:55:28;;;;;;;3.80;3.08;;;;;;;;;;5028617;28;20083;-68
2024/02/17 14:57:56;;;;;;;5.35;3.05;;;;;;;;;;5027764;28;20037;-65